sensor_id;sensor_type;location;lat;lon;timestamp;temperature;humidity
17715;DHT22;8977;50.902;4.314;2023-04-01T00:01:28;13.00;99.90
17715;DHT22;8977;50.902;4.314;2023-04-01T00:03:55;13.00;99.90
17715;DHT22;8977;50.902;4.314;2023-04-01T00:06:22;13.00;99.90
17715;DHT22;8977;50.902;4.314;2023-04-01T00:08:50;12.90;99.90
17715;DHT22;8977;50.902;4.314;2023-04-01T00:11:18;12.90;99.90
17715;DHT22;8977;50.902;4.314;2023-04-01T00:13:47;12.80;99.90
17715;DHT22;8977;50.902;4.314;2023-04-01T00:16:14;12.90;99.90
17715;DHT22;8977;50.902;4.314;2023-04-01T00:18:41;12.70;99.90
17715;DHT22;8977;50.902;4.314;2023-04-01T00:21:08;12.70;99.90
17715;DHT22;8977;50.902;4.314;2023-04-01T00:23:35;12.90;99.90
17715;DHT22;8977;50.902;4.314;2023-04-01T00:26:02;12.90;99.90
17715;DHT22;8977;50.902;4.314;2023-04-01T00:28:29;12.80;99.90
17715;DHT22;8977;50.902;4.314;2023-04-01T00:30:58;12.90;99.90
17715;DHT22;8977;50.902;4.314;2023-04-01T00:33:24;12.90;99.90
17715;DHT22;8977;50.902;4.314;2023-04-01T00:35:53;12.90;99.90
17715;DHT22;8977;50.902;4.314;2023-04-01T00:38:19;13.00;99.90
17715;DHT22;8977;50.902;4.314;2023-04-01T00:40:47;12.90;99.90
17715;DHT22;8977;50.902;4.314;2023-04-01T00:43:16;12.90;99.90
17715;DHT22;8977;50.902;4.314;2023-04-01T00:45:45;12.80;99.90
17715;DHT22;8977;50.902;4.314;2023-04-01T00:48:17;12.70;99.90
17715;DHT22;8977;50.902;4.314;2023-04-01T00:50:48;12.90;99.90
17715;DHT22;8977;50.902;4.314;2023-04-01T00:53:18;12.90;99.90
17715;DHT22;8977;50.902;4.314;2023-04-01T00:55:50;12.90;99.90
17715;DHT22;8977;50.902;4.314;2023-04-01T00:58:21;13.00;99.90
17715;DHT22;8977;50.902;4.314;2023-04-01T01:00:50;12.90;99.90
17715;DHT22;8977;50.902;4.314;2023-04-01T01:03:19;13.00;99.90
17715;DHT22;8977;50.902;4.314;2023-04-01T01:08:56;12.90;99.90
17715;DHT22;8977;50.902;4.314;2023-04-01T01:11:31;12.90;99.90
17715;DHT22;8977;50.902;4.314;2023-04-01T01:14:06;12.90;99.90
17715;DHT22;8977;50.902;4.314;2023-04-01T01:16:41;12.90;99.90
17715;DHT22;8977;50.902;4.314;2023-04-01T01:19:28;12.80;99.90
17715;DHT22;8977;50.902;4.314;2023-04-01T01:22:14;12.80;99.90
17715;DHT22;8977;50.902;4.314;2023-04-01T01:24:58;12.70;99.90
17715;DHT22;8977;50.902;4.314;2023-04-01T01:27:33;12.80;99.90
17715;DHT22;8977;50.902;4.314;2023-04-01T01:30:36;12.90;99.90
17715;DHT22;8977;50.902;4.314;2023-04-01T01:33:24;12.90;99.90
17715;DHT22;8977;50.902;4.314;2023-04-01T01:35:54;12.90;99.90
17715;DHT22;8977;50.902;4.314;2023-04-01T01:38:23;12.90;99.90
17715;DHT22;8977;50.902;4.314;2023-04-01T01:40:52;12.90;99.90
17715;DHT22;8977;50.902;4.314;2023-04-01T01:43:25;12.90;99.90
17715;DHT22;8977;50.902;4.314;2023-04-01T01:45:55;12.90;99.90
17715;DHT22;8977;50.902;4.314;2023-04-01T01:48:25;12.90;99.90
17715;DHT22;8977;50.902;4.314;2023-04-01T01:50:54;12.90;99.90
17715;DHT22;8977;50.902;4.314;2023-04-01T01:53:21;12.80;99.90
17715;DHT22;8977;50.902;4.314;2023-04-01T01:55:48;12.80;99.90
17715;DHT22;8977;50.902;4.314;2023-04-01T01:58:18;12.80;99.90
17715;DHT22;8977;50.902;4.314;2023-04-01T02:00:49;12.80;99.90
17715;DHT22;8977;50.902;4.314;2023-04-01T02:03:17;12.90;99.90
17715;DHT22;8977;50.902;4.314;2023-04-01T02:05:47;12.90;99.90
17715;DHT22;8977;50.902;4.314;2023-04-01T02:08:21;12.90;99.90
17715;DHT22;8977;50.902;4.314;2023-04-01T02:10:55;12.90;99.90
17715;DHT22;8977;50.902;4.314;2023-04-01T02:13:28;12.80;99.90
17715;DHT22;8977;50.902;4.314;2023-04-01T02:15:59;12.80;99.90
17715;DHT22;8977;50.902;4.314;2023-04-01T02:18:28;12.80;99.90
17715;DHT22;8977;50.902;4.314;2023-04-01T02:20:57;12.70;99.90
17715;DHT22;8977;50.902;4.314;2023-04-01T02:23:28;12.70;99.90
17715;DHT22;8977;50.902;4.314;2023-04-01T02:25:55;12.80;99.90
17715;DHT22;8977;50.902;4.314;2023-04-01T02:28:22;12.90;99.90
17715;DHT22;8977;50.902;4.314;2023-04-01T02:30:50;12.70;99.90
17715;DHT22;8977;50.902;4.314;2023-04-01T02:33:19;12.70;99.90
17715;DHT22;8977;50.902;4.314;2023-04-01T02:35:47;12.60;99.90
17715;DHT22;8977;50.902;4.314;2023-04-01T02:38:14;12.60;99.90
17715;DHT22;8977;50.902;4.314;2023-04-01T02:40:46;12.60;99.90
17715;DHT22;8977;50.902;4.314;2023-04-01T02:43:14;12.60;99.90
17715;DHT22;8977;50.902;4.314;2023-04-01T02:45:41;12.60;99.90
17715;DHT22;8977;50.902;4.314;2023-04-01T02:48:08;12.60;99.90
17715;DHT22;8977;50.902;4.314;2023-04-01T02:50:35;12.70;99.90
17715;DHT22;8977;50.902;4.314;2023-04-01T02:53:02;12.70;99.90
17715;DHT22;8977;50.902;4.314;2023-04-01T02:55:31;12.60;99.90
17715;DHT22;8977;50.902;4.314;2023-04-01T02:58:00;12.70;99.90
17715;DHT22;8977;50.902;4.314;2023-04-01T03:00:27;12.70;99.90
17715;DHT22;8977;50.902;4.314;2023-04-01T03:02:54;12.70;99.90
17715;DHT22;8977;50.902;4.314;2023-04-01T03:05:21;12.70;99.90
17715;DHT22;8977;50.902;4.314;2023-04-01T03:07:48;12.70;99.90
17715;DHT22;8977;50.902;4.314;2023-04-01T03:10:15;12.70;99.90
17715;DHT22;8977;50.902;4.314;2023-04-01T03:12:42;12.80;99.90
17715;DHT22;8977;50.902;4.314;2023-04-01T03:15:12;12.80;99.90
17715;DHT22;8977;50.902;4.314;2023-04-01T03:17:40;12.80;99.90
17715;DHT22;8977;50.902;4.314;2023-04-01T03:20:08;12.70;99.90
17715;DHT22;8977;50.902;4.314;2023-04-01T03:22:36;12.70;99.90
17715;DHT22;8977;50.902;4.314;2023-04-01T03:25:04;12.70;99.90
17715;DHT22;8977;50.902;4.314;2023-04-01T03:27:31;12.70;99.90
17715;DHT22;8977;50.902;4.314;2023-04-01T03:29:58;12.60;99.90
17715;DHT22;8977;50.902;4.314;2023-04-01T03:32:26;12.60;99.90
17715;DHT22;8977;50.902;4.314;2023-04-01T03:34:53;12.70;99.90
17715;DHT22;8977;50.902;4.314;2023-04-01T03:37:20;12.60;99.90
17715;DHT22;8977;50.902;4.314;2023-04-01T03:39:47;12.60;99.90
17715;DHT22;8977;50.902;4.314;2023-04-01T03:42:13;12.60;99.90
17715;DHT22;8977;50.902;4.314;2023-04-01T03:44:40;12.60;99.90
17715;DHT22;8977;50.902;4.314;2023-04-01T03:47:07;12.60;99.90
17715;DHT22;8977;50.902;4.314;2023-04-01T03:49:37;12.50;99.90
17715;DHT22;8977;50.902;4.314;2023-04-01T03:52:03;12.60;99.90
17715;DHT22;8977;50.902;4.314;2023-04-01T03:54:30;12.60;99.90
17715;DHT22;8977;50.902;4.314;2023-04-01T03:56:57;12.60;99.90
17715;DHT22;8977;50.902;4.314;2023-04-01T03:59:24;12.60;99.90
17715;DHT22;8977;50.902;4.314;2023-04-01T04:01:51;12.70;99.90
17715;DHT22;8977;50.902;4.314;2023-04-01T04:04:18;12.60;99.90
17715;DHT22;8977;50.902;4.314;2023-04-01T04:06:46;12.60;99.90
17715;DHT22;8977;50.902;4.314;2023-04-01T04:09:13;12.60;99.90
17715;DHT22;8977;50.902;4.314;2023-04-01T04:11:40;12.60;99.90
17715;DHT22;8977;50.902;4.314;2023-04-01T04:14:07;12.60;99.90
17715;DHT22;8977;50.902;4.314;2023-04-01T04:16:35;12.60;99.90
17715;DHT22;8977;50.902;4.314;2023-04-01T04:19:03;12.70;99.90
17715;DHT22;8977;50.902;4.314;2023-04-01T04:21:30;12.60;99.90
17715;DHT22;8977;50.902;4.314;2023-04-01T04:23:59;12.60;99.90
17715;DHT22;8977;50.902;4.314;2023-04-01T04:26:27;12.70;99.90
17715;DHT22;8977;50.902;4.314;2023-04-01T04:28:54;12.70;99.90
17715;DHT22;8977;50.902;4.314;2023-04-01T04:31:22;12.70;99.90
17715;DHT22;8977;50.902;4.314;2023-04-01T04:33:49;12.60;99.90
17715;DHT22;8977;50.902;4.314;2023-04-01T04:36:17;12.70;99.90
17715;DHT22;8977;50.902;4.314;2023-04-01T04:38:44;12.70;99.90
17715;DHT22;8977;50.902;4.314;2023-04-01T04:41:12;12.60;99.90
17715;DHT22;8977;50.902;4.314;2023-04-01T04:43:40;12.70;99.90
17715;DHT22;8977;50.902;4.314;2023-04-01T04:46:07;12.60;99.90
17715;DHT22;8977;50.902;4.314;2023-04-01T04:48:34;12.60;99.90
17715;DHT22;8977;50.902;4.314;2023-04-01T04:51:01;12.60;99.90
17715;DHT22;8977;50.902;4.314;2023-04-01T04:53:28;12.70;99.90
17715;DHT22;8977;50.902;4.314;2023-04-01T04:55:55;12.60;99.90
17715;DHT22;8977;50.902;4.314;2023-04-01T04:58:23;12.60;99.90
17715;DHT22;8977;50.902;4.314;2023-04-01T05:00:50;12.60;99.90
17715;DHT22;8977;50.902;4.314;2023-04-01T05:03:16;12.60;99.90
17715;DHT22;8977;50.902;4.314;2023-04-01T05:05:49;12.70;99.90
17715;DHT22;8977;50.902;4.314;2023-04-01T05:08:16;12.60;99.90
17715;DHT22;8977;50.902;4.314;2023-04-01T05:10:43;12.60;99.90
17715;DHT22;8977;50.902;4.314;2023-04-01T05:13:10;12.60;99.90
17715;DHT22;8977;50.902;4.314;2023-04-01T05:15:38;12.60;99.90
17715;DHT22;8977;50.902;4.314;2023-04-01T05:18:05;12.60;99.90
17715;DHT22;8977;50.902;4.314;2023-04-01T05:20:32;12.60;99.90
17715;DHT22;8977;50.902;4.314;2023-04-01T05:22:59;12.60;99.90
17715;DHT22;8977;50.902;4.314;2023-04-01T05:25:26;12.60;99.90
17715;DHT22;8977;50.902;4.314;2023-04-01T05:27:53;12.60;99.90
17715;DHT22;8977;50.902;4.314;2023-04-01T05:30:20;12.60;99.90
17715;DHT22;8977;50.902;4.314;2023-04-01T05:32:48;12.60;99.90
17715;DHT22;8977;50.902;4.314;2023-04-01T05:35:15;12.70;99.90
17715;DHT22;8977;50.902;4.314;2023-04-01T05:37:42;12.70;99.90
17715;DHT22;8977;50.902;4.314;2023-04-01T05:40:10;12.60;99.90
17715;DHT22;8977;50.902;4.314;2023-04-01T05:42:37;12.60;99.90
17715;DHT22;8977;50.902;4.314;2023-04-01T05:45:04;12.70;99.90
17715;DHT22;8977;50.902;4.314;2023-04-01T05:47:31;12.60;99.90
17715;DHT22;8977;50.902;4.314;2023-04-01T05:49:59;12.60;99.90
17715;DHT22;8977;50.902;4.314;2023-04-01T05:52:26;12.70;99.90
17715;DHT22;8977;50.902;4.314;2023-04-01T05:54:53;12.60;99.90
17715;DHT22;8977;50.902;4.314;2023-04-01T05:57:20;12.60;99.90
17715;DHT22;8977;50.902;4.314;2023-04-01T05:59:47;12.50;99.90
17715;DHT22;8977;50.902;4.314;2023-04-01T06:02:17;12.60;99.90
17715;DHT22;8977;50.902;4.314;2023-04-01T06:04:44;12.60;99.90
17715;DHT22;8977;50.902;4.314;2023-04-01T06:07:13;12.50;99.90
17715;DHT22;8977;50.902;4.314;2023-04-01T06:09:41;12.50;99.90
17715;DHT22;8977;50.902;4.314;2023-04-01T06:12:25;12.50;99.90
17715;DHT22;8977;50.902;4.314;2023-04-01T06:15:07;12.50;99.90
17715;DHT22;8977;50.902;4.314;2023-04-01T06:17:48;12.50;99.90
17715;DHT22;8977;50.902;4.314;2023-04-01T06:20:22;12.50;99.90
17715;DHT22;8977;50.902;4.314;2023-04-01T06:23:16;12.60;99.90
17715;DHT22;8977;50.902;4.314;2023-04-01T06:25:53;12.50;99.90
17715;DHT22;8977;50.902;4.314;2023-04-01T06:28:43;12.50;99.90
17715;DHT22;8977;50.902;4.314;2023-04-01T06:31:23;12.40;99.90
17715;DHT22;8977;50.902;4.314;2023-04-01T06:34:14;12.50;99.90
17715;DHT22;8977;50.902;4.314;2023-04-01T06:36:54;12.40;99.90
17715;DHT22;8977;50.902;4.314;2023-04-01T06:39:35;12.50;99.90
17715;DHT22;8977;50.902;4.314;2023-04-01T06:42:19;12.50;99.90
17715;DHT22;8977;50.902;4.314;2023-04-01T06:44:57;12.50;99.90
17715;DHT22;8977;50.902;4.314;2023-04-01T06:47:36;12.50;99.90
17715;DHT22;8977;50.902;4.314;2023-04-01T06:50:08;12.60;99.90
17715;DHT22;8977;50.902;4.314;2023-04-01T06:52:47;12.50;99.90
17715;DHT22;8977;50.902;4.314;2023-04-01T06:55:29;12.50;99.90
17715;DHT22;8977;50.902;4.314;2023-04-01T06:57:59;12.50;99.90
17715;DHT22;8977;50.902;4.314;2023-04-01T07:00:30;12.50;99.90
17715;DHT22;8977;50.902;4.314;2023-04-01T07:03:05;12.60;99.90
17715;DHT22;8977;50.902;4.314;2023-04-01T07:05:34;12.60;99.90
17715;DHT22;8977;50.902;4.314;2023-04-01T07:08:03;12.50;99.90
17715;DHT22;8977;50.902;4.314;2023-04-01T07:10:39;12.50;99.90
17715;DHT22;8977;50.902;4.314;2023-04-01T07:13:13;12.50;99.90
17715;DHT22;8977;50.902;4.314;2023-04-01T07:15:43;12.50;99.90
17715;DHT22;8977;50.902;4.314;2023-04-01T07:18:15;12.60;99.90
17715;DHT22;8977;50.902;4.314;2023-04-01T07:20:44;12.60;99.90
17715;DHT22;8977;50.902;4.314;2023-04-01T07:23:20;12.50;99.90
17715;DHT22;8977;50.902;4.314;2023-04-01T07:25:52;12.50;99.90
17715;DHT22;8977;50.902;4.314;2023-04-01T07:28:20;12.60;99.90
17715;DHT22;8977;50.902;4.314;2023-04-01T07:30:58;12.50;99.90
17715;DHT22;8977;50.902;4.314;2023-04-01T07:33:32;12.60;99.90
17715;DHT22;8977;50.902;4.314;2023-04-01T07:36:05;12.50;99.90
17715;DHT22;8977;50.902;4.314;2023-04-01T07:38:40;12.60;99.90
17715;DHT22;8977;50.902;4.314;2023-04-01T07:41:17;12.70;99.90
17715;DHT22;8977;50.902;4.314;2023-04-01T07:43:57;12.60;99.90
17715;DHT22;8977;50.902;4.314;2023-04-01T07:49:30;12.60;99.90
17715;DHT22;8977;50.902;4.314;2023-04-01T07:52:04;12.60;99.90
17715;DHT22;8977;50.902;4.314;2023-04-01T07:54:37;12.50;99.90
17715;DHT22;8977;50.902;4.314;2023-04-01T07:57:13;12.50;99.90
17715;DHT22;8977;50.902;4.314;2023-04-01T07:59:49;12.50;99.90
17715;DHT22;8977;50.902;4.314;2023-04-01T08:02:31;12.50;99.90
17715;DHT22;8977;50.902;4.314;2023-04-01T08:05:04;12.50;99.90
17715;DHT22;8977;50.902;4.314;2023-04-01T08:07:42;12.50;99.90
17715;DHT22;8977;50.902;4.314;2023-04-01T08:10:14;12.50;99.90
17715;DHT22;8977;50.902;4.314;2023-04-01T08:12:54;12.50;99.90
17715;DHT22;8977;50.902;4.314;2023-04-01T08:15:28;12.50;99.90
17715;DHT22;8977;50.902;4.314;2023-04-01T08:18:04;12.40;99.90
17715;DHT22;8977;50.902;4.314;2023-04-01T08:20:36;12.40;99.90
17715;DHT22;8977;50.902;4.314;2023-04-01T08:23:07;12.40;99.90
17715;DHT22;8977;50.902;4.314;2023-04-01T08:25:40;12.50;99.90
17715;DHT22;8977;50.902;4.314;2023-04-01T08:28:15;12.50;99.90
17715;DHT22;8977;50.902;4.314;2023-04-01T08:30:47;12.50;99.90
17715;DHT22;8977;50.902;4.314;2023-04-01T08:33:18;12.60;99.90
17715;DHT22;8977;50.902;4.314;2023-04-01T08:35:49;12.50;99.90
17715;DHT22;8977;50.902;4.314;2023-04-01T08:38:20;12.70;99.90
17715;DHT22;8977;50.902;4.314;2023-04-01T08:41:00;12.60;99.90
17715;DHT22;8977;50.902;4.314;2023-04-01T08:43:48;12.60;99.90
17715;DHT22;8977;50.902;4.314;2023-04-01T08:46:44;12.60;99.90
17715;DHT22;8977;50.902;4.314;2023-04-01T08:49:27;12.60;99.90
17715;DHT22;8977;50.902;4.314;2023-04-01T08:52:19;12.50;99.90
17715;DHT22;8977;50.902;4.314;2023-04-01T08:55:30;12.50;99.90
17715;DHT22;8977;50.902;4.314;2023-04-01T09:00:56;12.70;99.90
17715;DHT22;8977;50.902;4.314;2023-04-01T09:03:48;12.60;99.90
17715;DHT22;8977;50.902;4.314;2023-04-01T09:06:33;12.60;99.90
17715;DHT22;8977;50.902;4.314;2023-04-01T09:12:26;12.70;99.90
17715;DHT22;8977;50.902;4.314;2023-04-01T09:18:23;12.60;99.90
17715;DHT22;8977;50.902;4.314;2023-04-01T09:21:10;12.60;99.90
17715;DHT22;8977;50.902;4.314;2023-04-01T09:24:02;12.60;99.90
17715;DHT22;8977;50.902;4.314;2023-04-01T09:26:51;12.70;99.90
17715;DHT22;8977;50.902;4.314;2023-04-01T09:29:34;12.70;99.90
17715;DHT22;8977;50.902;4.314;2023-04-01T09:32:16;12.60;99.90
17715;DHT22;8977;50.902;4.314;2023-04-01T09:34:54;12.70;99.90
17715;DHT22;8977;50.902;4.314;2023-04-01T09:37:33;12.70;99.90
17715;DHT22;8977;50.902;4.314;2023-04-01T09:40:21;12.70;99.90
17715;DHT22;8977;50.902;4.314;2023-04-01T09:43:06;12.60;99.90
17715;DHT22;8977;50.902;4.314;2023-04-01T09:45:48;12.70;99.90
17715;DHT22;8977;50.902;4.314;2023-04-01T09:48:37;12.70;99.90
17715;DHT22;8977;50.902;4.314;2023-04-01T09:51:22;12.70;99.90
17715;DHT22;8977;50.902;4.314;2023-04-01T09:54:05;12.70;99.90
17715;DHT22;8977;50.902;4.314;2023-04-01T09:57:03;12.60;99.90
17715;DHT22;8977;50.902;4.314;2023-04-01T10:03:02;12.60;99.90
17715;DHT22;8977;50.902;4.314;2023-04-01T10:12:19;12.60;99.90
17715;DHT22;8977;50.902;4.314;2023-04-01T10:15:15;12.70;99.90
17715;DHT22;8977;50.902;4.314;2023-04-01T10:18:19;12.70;99.90
17715;DHT22;8977;50.902;4.314;2023-04-01T10:21:06;12.70;99.90
17715;DHT22;8977;50.902;4.314;2023-04-01T10:27:05;12.80;99.90
17715;DHT22;8977;50.902;4.314;2023-04-01T10:39:02;12.80;99.90
17715;DHT22;8977;50.902;4.314;2023-04-01T10:42:03;12.90;99.90
17715;DHT22;8977;50.902;4.314;2023-04-01T10:45:02;13.00;99.90
17715;DHT22;8977;50.902;4.314;2023-04-01T10:48:12;12.90;99.90
17715;DHT22;8977;50.902;4.314;2023-04-01T10:51:16;12.90;99.90
17715;DHT22;8977;50.902;4.314;2023-04-01T10:54:09;12.80;99.90
17715;DHT22;8977;50.902;4.314;2023-04-01T10:56:50;12.70;99.90
17715;DHT22;8977;50.902;4.314;2023-04-01T11:21:20;13.00;99.90
17715;DHT22;8977;50.902;4.314;2023-04-01T11:24:04;13.00;99.90
17715;DHT22;8977;50.902;4.314;2023-04-01T11:26:50;12.90;99.90
17715;DHT22;8977;50.902;4.314;2023-04-01T11:32:26;13.00;99.90
17715;DHT22;8977;50.902;4.314;2023-04-01T11:35:04;13.00;99.90
17715;DHT22;8977;50.902;4.314;2023-04-01T11:37:41;13.10;99.90
17715;DHT22;8977;50.902;4.314;2023-04-01T11:40:19;13.00;99.90
17715;DHT22;8977;50.902;4.314;2023-04-01T11:42:54;13.00;99.90
17715;DHT22;8977;50.902;4.314;2023-04-01T11:45:35;13.00;99.90
17715;DHT22;8977;50.902;4.314;2023-04-01T11:48:35;13.00;99.90
17715;DHT22;8977;50.902;4.314;2023-04-01T11:51:28;13.00;99.90
17715;DHT22;8977;50.902;4.314;2023-04-01T11:54:06;13.00;99.90
17715;DHT22;8977;50.902;4.314;2023-04-01T11:56:56;13.00;99.90
17715;DHT22;8977;50.902;4.314;2023-04-01T11:59:56;12.90;99.90
17715;DHT22;8977;50.902;4.314;2023-04-01T12:02:29;12.90;99.90
17715;DHT22;8977;50.902;4.314;2023-04-01T12:05:15;12.90;99.90
17715;DHT22;8977;50.902;4.314;2023-04-01T12:08:07;13.00;99.90
17715;DHT22;8977;50.902;4.314;2023-04-01T12:10:40;12.90;99.90
17715;DHT22;8977;50.902;4.314;2023-04-01T12:13:16;12.90;99.90
17715;DHT22;8977;50.902;4.314;2023-04-01T12:16:00;12.90;99.90
17715;DHT22;8977;50.902;4.314;2023-04-01T12:18:36;12.80;99.90
17715;DHT22;8977;50.902;4.314;2023-04-01T12:21:15;12.80;99.90
17715;DHT22;8977;50.902;4.314;2023-04-01T12:24:18;12.90;99.90
17715;DHT22;8977;50.902;4.314;2023-04-01T12:26:55;12.90;99.90
17715;DHT22;8977;50.902;4.314;2023-04-01T12:29:44;12.80;99.90
17715;DHT22;8977;50.902;4.314;2023-04-01T12:32:24;12.70;99.90
17715;DHT22;8977;50.902;4.314;2023-04-01T12:35:10;12.70;99.90
17715;DHT22;8977;50.902;4.314;2023-04-01T12:37:47;12.80;99.90
17715;DHT22;8977;50.902;4.314;2023-04-01T12:40:26;12.80;99.90
17715;DHT22;8977;50.902;4.314;2023-04-01T12:43:05;12.80;99.90
17715;DHT22;8977;50.902;4.314;2023-04-01T12:45:39;12.90;99.90
17715;DHT22;8977;50.902;4.314;2023-04-01T12:48:32;13.00;99.90
17715;DHT22;8977;50.902;4.314;2023-04-01T12:51:48;12.90;99.90
17715;DHT22;8977;50.902;4.314;2023-04-01T13:00:44;12.80;99.90
17715;DHT22;8977;50.902;4.314;2023-04-01T13:03:30;12.80;99.90
17715;DHT22;8977;50.902;4.314;2023-04-01T13:09:13;12.90;99.90
17715;DHT22;8977;50.902;4.314;2023-04-01T13:12:00;12.90;99.90
17715;DHT22;8977;50.902;4.314;2023-04-01T13:15:10;12.90;99.90
17715;DHT22;8977;50.902;4.314;2023-04-01T13:17:49;12.90;99.90
17715;DHT22;8977;50.902;4.314;2023-04-01T13:20:28;12.90;99.90
17715;DHT22;8977;50.902;4.314;2023-04-01T13:23:10;12.80;99.90
17715;DHT22;8977;50.902;4.314;2023-04-01T13:25:42;12.90;99.90
17715;DHT22;8977;50.902;4.314;2023-04-01T13:28:16;12.90;99.90
17715;DHT22;8977;50.902;4.314;2023-04-01T13:30:48;12.90;99.90
17715;DHT22;8977;50.902;4.314;2023-04-01T13:33:25;12.80;99.90
17715;DHT22;8977;50.902;4.314;2023-04-01T13:36:07;12.90;99.90
17715;DHT22;8977;50.902;4.314;2023-04-01T13:41:52;12.90;99.90
17715;DHT22;8977;50.902;4.314;2023-04-01T13:44:29;12.80;99.90
17715;DHT22;8977;50.902;4.314;2023-04-01T13:50:01;12.90;99.90
17715;DHT22;8977;50.902;4.314;2023-04-01T13:52:46;13.00;99.90
17715;DHT22;8977;50.902;4.314;2023-04-01T13:55:35;12.90;99.90
17715;DHT22;8977;50.902;4.314;2023-04-01T13:58:22;12.90;99.90
17715;DHT22;8977;50.902;4.314;2023-04-01T14:00:55;13.00;99.90
17715;DHT22;8977;50.902;4.314;2023-04-01T14:03:37;12.90;99.90
17715;DHT22;8977;50.902;4.314;2023-04-01T14:06:13;12.90;99.90
17715;DHT22;8977;50.902;4.314;2023-04-01T14:09:08;13.00;99.90
17715;DHT22;8977;50.902;4.314;2023-04-01T14:11:43;13.00;99.90
17715;DHT22;8977;50.902;4.314;2023-04-01T14:14:20;13.00;99.90
17715;DHT22;8977;50.902;4.314;2023-04-01T14:17:23;13.00;99.90
17715;DHT22;8977;50.902;4.314;2023-04-01T14:20:14;13.00;99.90
17715;DHT22;8977;50.902;4.314;2023-04-01T14:22:58;13.00;99.90
17715;DHT22;8977;50.902;4.314;2023-04-01T14:25:50;12.90;99.90
17715;DHT22;8977;50.902;4.314;2023-04-01T14:28:27;12.90;99.90
17715;DHT22;8977;50.902;4.314;2023-04-01T14:31:22;12.90;99.90
17715;DHT22;8977;50.902;4.314;2023-04-01T14:34:00;13.00;99.90
17715;DHT22;8977;50.902;4.314;2023-04-01T14:36:53;12.90;99.90
17715;DHT22;8977;50.902;4.314;2023-04-01T14:39:47;12.90;99.90
17715;DHT22;8977;50.902;4.314;2023-04-01T14:42:41;12.90;99.90
17715;DHT22;8977;50.902;4.314;2023-04-01T14:45:51;12.90;99.90
17715;DHT22;8977;50.902;4.314;2023-04-01T14:48:28;12.90;99.90
17715;DHT22;8977;50.902;4.314;2023-04-01T14:51:03;12.80;99.90
17715;DHT22;8977;50.902;4.314;2023-04-01T14:53:36;12.90;99.90
17715;DHT22;8977;50.902;4.314;2023-04-01T14:56:08;13.00;99.90
17715;DHT22;8977;50.902;4.314;2023-04-01T14:58:44;12.90;99.90
17715;DHT22;8977;50.902;4.314;2023-04-01T15:01:23;13.00;99.90
17715;DHT22;8977;50.902;4.314;2023-04-01T15:03:57;13.00;99.90
17715;DHT22;8977;50.902;4.314;2023-04-01T15:06:40;13.00;99.90
17715;DHT22;8977;50.902;4.314;2023-04-01T15:09:19;12.90;99.90
17715;DHT22;8977;50.902;4.314;2023-04-01T15:11:56;13.00;99.90
17715;DHT22;8977;50.902;4.314;2023-04-01T15:14:43;12.90;99.90
17715;DHT22;8977;50.902;4.314;2023-04-01T15:17:28;12.90;99.90
17715;DHT22;8977;50.902;4.314;2023-04-01T15:20:18;12.90;99.90
17715;DHT22;8977;50.902;4.314;2023-04-01T15:23:05;13.00;99.90
17715;DHT22;8977;50.902;4.314;2023-04-01T15:25:50;12.90;99.90
17715;DHT22;8977;50.902;4.314;2023-04-01T15:28:25;12.90;99.90
17715;DHT22;8977;50.902;4.314;2023-04-01T15:31:00;12.90;99.90
17715;DHT22;8977;50.902;4.314;2023-04-01T15:33:45;12.90;99.90
17715;DHT22;8977;50.902;4.314;2023-04-01T15:36:30;12.80;99.90
17715;DHT22;8977;50.902;4.314;2023-04-01T15:39:09;12.90;99.90
17715;DHT22;8977;50.902;4.314;2023-04-01T15:41:43;12.90;99.90
17715;DHT22;8977;50.902;4.314;2023-04-01T15:44:41;12.90;99.90
17715;DHT22;8977;50.902;4.314;2023-04-01T15:47:31;12.90;99.90
17715;DHT22;8977;50.902;4.314;2023-04-01T15:52:52;12.90;99.90
17715;DHT22;8977;50.902;4.314;2023-04-01T15:55:27;12.80;99.90
17715;DHT22;8977;50.902;4.314;2023-04-01T15:58:19;12.70;99.90
17715;DHT22;8977;50.902;4.314;2023-04-01T16:00:57;12.70;99.90
17715;DHT22;8977;50.902;4.314;2023-04-01T16:03:37;12.70;99.90
17715;DHT22;8977;50.902;4.314;2023-04-01T16:06:18;12.70;99.90
17715;DHT22;8977;50.902;4.314;2023-04-01T16:09:23;12.70;99.90
17715;DHT22;8977;50.902;4.314;2023-04-01T16:11:59;12.60;99.90
17715;DHT22;8977;50.902;4.314;2023-04-01T16:14:38;12.60;99.90
17715;DHT22;8977;50.902;4.314;2023-04-01T16:17:22;12.60;99.90
17715;DHT22;8977;50.902;4.314;2023-04-01T16:19:56;12.60;99.90
17715;DHT22;8977;50.902;4.314;2023-04-01T16:22:28;12.60;99.90
17715;DHT22;8977;50.902;4.314;2023-04-01T16:25:14;12.60;99.90
17715;DHT22;8977;50.902;4.314;2023-04-01T16:27:49;12.60;99.90
17715;DHT22;8977;50.902;4.314;2023-04-01T16:30:32;12.70;99.90
17715;DHT22;8977;50.902;4.314;2023-04-01T16:33:04;12.60;99.90
17715;DHT22;8977;50.902;4.314;2023-04-01T16:35:41;12.70;99.90
17715;DHT22;8977;50.902;4.314;2023-04-01T16:38:16;12.70;99.90
17715;DHT22;8977;50.902;4.314;2023-04-01T16:40:50;12.70;99.90
17715;DHT22;8977;50.902;4.314;2023-04-01T16:43:25;12.70;99.90
17715;DHT22;8977;50.902;4.314;2023-04-01T16:48:52;12.80;99.90
17715;DHT22;8977;50.902;4.314;2023-04-01T16:51:22;12.60;99.90
17715;DHT22;8977;50.902;4.314;2023-04-01T16:54:00;12.60;99.90
17715;DHT22;8977;50.902;4.314;2023-04-01T16:56:38;12.50;99.90
17715;DHT22;8977;50.902;4.314;2023-04-01T16:59:14;12.50;99.90
17715;DHT22;8977;50.902;4.314;2023-04-01T17:01:47;12.60;99.90
17715;DHT22;8977;50.902;4.314;2023-04-01T17:04:25;12.70;99.90
17715;DHT22;8977;50.902;4.314;2023-04-01T17:07:01;12.60;99.90
17715;DHT22;8977;50.902;4.314;2023-04-01T17:09:48;12.60;99.90
17715;DHT22;8977;50.902;4.314;2023-04-01T17:12:25;12.60;99.90
17715;DHT22;8977;50.902;4.314;2023-04-01T17:15:00;12.50;99.90
17715;DHT22;8977;50.902;4.314;2023-04-01T17:17:38;12.50;99.90
17715;DHT22;8977;50.902;4.314;2023-04-01T17:20:31;12.50;99.90
17715;DHT22;8977;50.902;4.314;2023-04-01T17:23:01;12.60;99.90
17715;DHT22;8977;50.902;4.314;2023-04-01T17:25:41;12.50;99.90
17715;DHT22;8977;50.902;4.314;2023-04-01T17:28:24;12.60;99.90
17715;DHT22;8977;50.902;4.314;2023-04-01T17:31:02;12.60;99.90
17715;DHT22;8977;50.902;4.314;2023-04-01T17:33:53;12.60;99.90
17715;DHT22;8977;50.902;4.314;2023-04-01T17:36:31;12.60;99.90
17715;DHT22;8977;50.902;4.314;2023-04-01T17:39:15;12.60;99.90
17715;DHT22;8977;50.902;4.314;2023-04-01T17:41:50;12.60;99.90
17715;DHT22;8977;50.902;4.314;2023-04-01T17:50:21;12.60;99.90
17715;DHT22;8977;50.902;4.314;2023-04-01T17:52:58;12.60;99.90
17715;DHT22;8977;50.902;4.314;2023-04-01T17:55:48;12.60;99.90
17715;DHT22;8977;50.902;4.314;2023-04-01T17:58:19;12.60;99.90
17715;DHT22;8977;50.902;4.314;2023-04-01T18:01:08;12.60;99.90
17715;DHT22;8977;50.902;4.314;2023-04-01T18:04:15;12.60;99.90
17715;DHT22;8977;50.902;4.314;2023-04-01T18:07:09;12.60;99.90
17715;DHT22;8977;50.902;4.314;2023-04-01T18:09:52;12.60;99.90
17715;DHT22;8977;50.902;4.314;2023-04-01T18:12:28;12.60;99.90
17715;DHT22;8977;50.902;4.314;2023-04-01T18:15:15;12.60;99.90